createdAt,value
2018-01-05T00:01:08.511Z,0.50
2018-01-05T00:03:36.100Z,0.50
2018-01-05T00:06:04.447Z,1.03
2018-01-05T00:08:32.020Z,0.40
2018-01-05T00:10:59.602Z,0.40
2018-01-05T00:13:27.929Z,0.40
2018-01-05T00:15:55.503Z,3.50
2018-01-05T00:18:23.081Z,0.40
2018-01-05T00:20:50.642Z,0.50
2018-01-05T00:23:18.221Z,0.40
2018-01-05T00:25:46.546Z,0.40
2018-01-05T00:28:14.113Z,0.50
2018-01-05T00:30:41.692Z,0.50
2018-01-05T00:33:09.249Z,0.90
2018-01-05T00:35:36.814Z,0.50
2018-01-05T00:38:04.402Z,0.40
2018-01-05T00:40:32.717Z,0.40
2018-01-05T00:43:00.302Z,0.40
2018-01-05T00:45:27.846Z,2.53
2018-01-05T00:47:55.415Z,0.60
2018-01-05T00:50:22.999Z,0.40
2018-01-05T00:52:50.544Z,0.40
2018-01-05T00:55:18.107Z,0.40
2018-01-05T00:57:45.673Z,0.40
2018-01-05T01:00:13.225Z,0.50
2018-01-05T01:02:40.802Z,0.40
2018-01-05T01:05:11.445Z,0.50
2018-01-05T01:07:39.759Z,0.40
2018-01-05T01:10:07.357Z,0.40
2018-01-05T01:12:34.913Z,0.40
2018-01-05T01:15:02.501Z,3.03
2018-01-05T01:17:30.071Z,0.40
2018-01-05T01:19:57.629Z,0.40
2018-01-05T01:22:25.192Z,2.30
2018-01-05T01:24:52.736Z,0.40
2018-01-05T01:27:21.072Z,0.40
2018-01-05T01:29:48.664Z,1.63
2018-01-05T01:32:16.226Z,0.83
2018-01-05T01:34:44.541Z,0.53
2018-01-05T01:37:12.142Z,0.43
2018-01-05T01:39:39.688Z,0.40
2018-01-05T01:42:07.231Z,0.40
2018-01-05T01:44:34.791Z,0.50
2018-01-05T01:47:02.350Z,1.03
2018-01-05T01:49:29.887Z,0.50
2018-01-05T01:51:57.510Z,0.50
2018-01-05T01:54:25.066Z,0.50
2018-01-05T01:56:52.613Z,0.40
2018-01-05T01:59:20.197Z,0.40
2018-01-05T02:01:47.736Z,0.40
2018-01-05T02:04:15.304Z,0.40
2018-01-05T02:06:42.853Z,0.40
2018-01-05T02:09:10.405Z,0.50
2018-01-05T02:11:39.615Z,0.40
2018-01-05T02:14:07.165Z,0.50
2018-01-05T02:16:34.731Z,0.40
2018-01-05T02:19:02.294Z,0.40
2018-01-05T02:21:29.839Z,0.40
2018-01-05T02:23:57.402Z,0.50
2018-01-05T02:26:24.952Z,0.67
2018-01-05T02:28:52.515Z,0.60
2018-01-05T02:31:20.096Z,1.70
2018-01-05T02:33:47.650Z,0.40
2018-01-05T02:36:15.206Z,0.40
2018-01-05T02:38:42.790Z,0.40
2018-01-05T02:41:10.337Z,0.70
2018-01-05T02:43:37.894Z,0.40
2018-01-05T02:46:05.474Z,0.40
2018-01-05T02:48:33.790Z,0.50
2018-01-05T02:51:01.376Z,0.70
2018-01-05T02:53:28.943Z,0.40
2018-01-05T02:55:56.518Z,0.40
2018-01-05T02:58:24.079Z,0.40
2018-01-05T03:00:52.414Z,0.40
2018-01-05T03:03:19.970Z,0.40
2018-01-05T03:05:47.522Z,0.50
2018-01-05T03:08:15.093Z,1.53
2018-01-05T03:10:42.659Z,0.40
2018-01-05T03:13:10.244Z,0.40
2018-01-05T03:15:37.794Z,0.40
2018-01-05T03:18:05.373Z,0.40
2018-01-05T03:20:32.934Z,0.40
2018-01-05T03:23:00.481Z,0.73
2018-01-05T03:25:28.106Z,0.40
2018-01-05T03:27:55.671Z,0.60
2018-01-05T03:30:23.252Z,0.83
2018-01-05T03:32:50.809Z,0.40
2018-01-05T03:35:18.397Z,0.40
2018-01-05T03:37:46.707Z,0.50
2018-01-05T03:40:14.274Z,0.80
2018-01-05T03:42:41.820Z,2.23
2018-01-05T03:45:09.397Z,0.60
2018-01-05T03:47:36.948Z,1.23
2018-01-05T03:50:04.498Z,1.90
2018-01-05T03:52:32.069Z,0.83
2018-01-05T03:54:59.620Z,0.70
2018-01-05T03:57:27.175Z,0.70
2018-01-05T03:59:54.762Z,0.60
2018-01-05T04:02:22.342Z,0.40
2018-01-05T04:04:49.880Z,0.47
2018-01-05T04:07:17.461Z,0.40
2018-01-05T04:09:45.018Z,0.40
2018-01-05T04:12:13.395Z,0.40
2018-01-05T04:14:40.975Z,0.40
2018-01-05T04:17:08.533Z,0.67
2018-01-05T04:19:36.101Z,0.50
2018-01-05T04:22:03.641Z,0.40
2018-01-05T04:24:31.221Z,0.40
2018-01-05T04:26:58.763Z,0.40
2018-01-05T04:29:26.323Z,0.40
2018-01-05T04:31:53.873Z,0.40
2018-01-05T04:34:21.435Z,0.97
2018-01-05T04:36:49.014Z,0.40
2018-01-05T04:39:16.574Z,0.40
2018-01-05T04:41:44.155Z,0.40
2018-01-05T04:44:12.477Z,0.40
2018-01-05T04:46:40.071Z,0.40
2018-01-05T04:49:07.643Z,0.50
2018-01-05T04:51:36.003Z,0.40
2018-01-05T04:54:03.551Z,1.00
2018-01-05T04:56:31.152Z,0.40
2018-01-05T04:58:59.475Z,0.40
2018-01-05T05:01:27.048Z,3.27
2018-01-05T05:03:54.647Z,0.40
2018-01-05T05:06:22.965Z,0.50
2018-01-05T05:08:50.542Z,1.03
2018-01-05T05:11:18.096Z,0.45
2018-01-05T05:13:45.665Z,0.40
2018-01-05T05:16:13.206Z,0.40
2018-01-05T05:18:40.785Z,0.60
2018-01-05T05:21:08.341Z,0.40
2018-01-05T05:23:35.895Z,0.57
2018-01-05T05:26:03.458Z,2.20
2018-01-05T05:28:31.019Z,0.50
2018-01-05T05:30:58.579Z,0.40
2018-01-05T05:33:26.143Z,0.70
2018-01-05T05:35:53.708Z,0.40
2018-01-05T05:38:21.278Z,0.40
2018-01-05T05:40:48.831Z,0.40
2018-01-05T05:43:17.172Z,0.40
2018-01-05T05:45:44.740Z,1.13
2018-01-05T05:48:12.305Z,0.40
2018-01-05T05:50:39.865Z,0.57
2018-01-05T05:53:07.451Z,0.82
2018-01-05T05:55:35.028Z,0.68
2018-01-05T05:58:03.359Z,0.40
2018-01-05T06:00:30.921Z,1.23
2018-01-05T06:02:58.497Z,0.85
2018-01-05T06:05:26.133Z,2.53
2018-01-05T06:07:53.736Z,0.40
2018-01-05T06:10:22.076Z,0.40
2018-01-05T06:12:49.659Z,0.40
2018-01-05T06:15:17.251Z,3.15
2018-01-05T06:17:45.573Z,0.55
2018-01-05T06:20:13.135Z,0.40
2018-01-05T06:22:40.716Z,0.52
2018-01-05T06:25:08.327Z,0.40
2018-01-05T06:27:35.881Z,0.55
2018-01-05T06:30:03.448Z,0.40
2018-01-05T06:32:30.997Z,0.40
2018-01-05T06:34:58.567Z,1.20
2018-01-05T06:37:26.127Z,1.00
2018-01-05T06:39:53.672Z,2.47
2018-01-05T06:42:21.233Z,1.52
2018-01-05T06:44:48.798Z,5.03
2018-01-05T06:47:16.374Z,0.68
2018-01-05T06:49:43.948Z,3.58
2018-01-05T06:52:11.507Z,2.80
2018-01-05T06:54:39.043Z,1.05
2018-01-05T06:57:06.636Z,0.70
2018-01-05T06:59:34.203Z,2.05
2018-01-05T07:02:01.766Z,0.50
2018-01-05T07:04:29.333Z,0.57
2018-01-05T07:06:56.880Z,0.88
2018-01-05T07:09:24.464Z,0.98
2018-01-05T07:11:52.003Z,0.50
2018-01-05T07:14:19.577Z,0.70
2018-01-05T07:16:47.129Z,0.43
2018-01-05T07:19:14.710Z,0.60
2018-01-05T07:21:43.015Z,0.50
2018-01-05T07:24:10.580Z,0.50
2018-01-05T07:26:38.150Z,0.40
2018-01-05T07:29:05.709Z,0.50
2018-01-05T07:31:33.296Z,4.65
2018-01-05T07:34:00.840Z,0.80
2018-01-05T07:36:28.418Z,0.60
2018-01-05T07:38:55.969Z,3.40
2018-01-05T07:41:23.539Z,0.80
2018-01-05T07:43:51.111Z,2.10
2018-01-05T07:46:18.695Z,0.60
2018-01-05T07:48:47.035Z,0.80
2018-01-05T07:51:14.589Z,1.05
2018-01-05T07:53:42.142Z,2.05
2018-01-05T07:56:09.711Z,1.27
2018-01-05T07:58:37.304Z,0.80
2018-01-05T08:01:05.625Z,1.15
2018-01-05T08:03:33.399Z,0.55
2018-01-05T08:06:00.978Z,0.85
2018-01-05T08:08:28.561Z,5.07
2018-01-05T08:10:56.887Z,0.60
2018-01-05T08:13:24.447Z,0.75
2018-01-05T08:15:52.034Z,0.50
2018-01-05T08:18:19.598Z,0.52
2018-01-05T08:20:47.173Z,1.00
2018-01-05T08:23:14.735Z,2.87
2018-01-05T08:25:42.320Z,0.53
2018-01-05T08:28:09.877Z,1.02
2018-01-05T08:30:37.468Z,0.50
2018-01-05T08:33:05.007Z,0.50
2018-01-05T08:35:32.580Z,8.20
2018-01-05T08:38:00.148Z,2.80
2018-01-05T08:40:27.724Z,1.83
2018-01-05T08:42:55.317Z,3.13
2018-01-05T08:45:23.637Z,3.70
2018-01-05T08:47:51.205Z,1.03
2018-01-05T08:50:18.776Z,3.00
2018-01-05T08:52:46.353Z,1.13
2018-01-05T08:55:13.983Z,2.60
2018-01-05T08:57:41.560Z,1.90
2018-01-05T09:00:09.151Z,1.37
2018-01-05T09:02:37.488Z,1.30
2018-01-05T09:05:05.076Z,1.20
2018-01-05T09:07:32.652Z,1.33
2018-01-05T09:10:01.008Z,1.27
2018-01-05T09:12:28.569Z,2.20
2018-01-05T09:14:56.160Z,2.93
2018-01-05T09:17:24.499Z,1.17
2018-01-05T09:19:52.099Z,1.70
2018-01-05T09:22:20.429Z,1.07
2018-01-05T09:24:47.991Z,3.13
2018-01-05T09:27:15.555Z,0.87
2018-01-05T09:29:43.121Z,0.60
2018-01-05T09:32:10.693Z,0.70
2018-01-05T09:34:38.236Z,0.70
2018-01-05T09:37:05.795Z,1.20
2018-01-05T09:39:33.349Z,2.10
2018-01-05T09:42:00.952Z,0.90
2018-01-05T09:44:29.256Z,9.30
2018-01-05T09:46:56.825Z,1.43
2018-01-05T09:49:24.380Z,0.70
2018-01-05T09:51:51.926Z,0.67
2018-01-05T09:54:19.492Z,1.57
2018-01-05T09:56:47.045Z,1.13
2018-01-05T09:59:14.617Z,0.90
2018-01-05T10:01:42.155Z,0.60
2018-01-05T10:04:09.720Z,1.07
2018-01-05T10:06:37.261Z,0.97
2018-01-05T10:09:05.581Z,0.60
2018-01-05T10:11:33.149Z,0.73
2018-01-05T10:14:00.720Z,0.60
2018-01-05T10:16:28.288Z,1.00
2018-01-05T10:18:55.836Z,1.90
2018-01-05T10:21:23.425Z,0.60
2018-01-05T10:23:50.982Z,0.90
2018-01-05T10:26:18.558Z,0.80
2018-01-05T10:28:46.894Z,0.70
2018-01-05T10:31:14.481Z,0.60
2018-01-05T10:33:42.788Z,0.60
2018-01-05T10:36:10.348Z,0.90
2018-01-05T10:38:37.940Z,0.63
2018-01-05T10:41:05.502Z,0.70
2018-01-05T10:43:33.088Z,0.50
2018-01-05T10:46:01.408Z,0.50
2018-01-05T10:48:28.986Z,1.27
2018-01-05T10:50:56.528Z,1.00
2018-01-05T10:53:24.095Z,0.60
2018-01-05T10:55:51.649Z,0.60
2018-01-05T10:58:19.205Z,0.83
2018-01-05T11:00:46.768Z,0.50
2018-01-05T11:03:14.340Z,0.50
2018-01-05T11:05:41.918Z,0.67
2018-01-05T11:08:10.240Z,0.50
2018-01-05T11:10:38.567Z,1.00
2018-01-05T11:13:06.122Z,3.90
2018-01-05T11:15:33.702Z,0.40
2018-01-05T11:18:02.030Z,0.93
2018-01-05T11:20:29.619Z,0.50
2018-01-05T11:22:57.190Z,0.50
2018-01-05T11:25:24.737Z,0.90
2018-01-05T11:27:52.290Z,0.50
2018-01-05T11:30:19.864Z,0.50
2018-01-05T11:32:47.433Z,1.13
2018-01-05T11:35:14.998Z,0.50
2018-01-05T11:37:42.735Z,0.80
2018-01-05T11:40:10.324Z,0.50
2018-01-05T11:42:37.911Z,0.40
2018-01-05T11:45:06.243Z,0.70
2018-01-05T11:47:33.854Z,0.60
2018-01-05T11:50:02.194Z,0.50
2018-01-05T11:52:29.739Z,0.70
2018-01-05T11:54:57.309Z,0.60
2018-01-05T11:57:25.643Z,0.50
2018-01-05T11:59:53.213Z,0.60
2018-01-05T12:02:20.773Z,0.80
2018-01-05T12:04:48.344Z,0.90
2018-01-05T12:07:15.908Z,0.47
2018-01-05T12:09:43.466Z,0.63
2018-01-05T12:12:14.530Z,0.60
2018-01-05T12:14:42.094Z,0.47
2018-01-05T12:17:09.685Z,0.40
2018-01-05T12:19:38.055Z,0.50
2018-01-05T12:22:05.619Z,0.60
2018-01-05T12:24:33.174Z,0.50
2018-01-05T12:27:01.518Z,0.50
2018-01-05T12:29:29.088Z,0.40
2018-01-05T12:31:56.723Z,0.40
2018-01-05T12:34:24.272Z,0.50
2018-01-05T12:36:51.853Z,0.50
2018-01-05T12:39:19.429Z,0.50
2018-01-05T12:41:47.003Z,0.50
2018-01-05T12:44:14.569Z,0.53
2018-01-05T12:46:42.123Z,2.53
2018-01-05T12:49:09.701Z,0.80
2018-01-05T12:51:38.040Z,2.20
2018-01-05T12:54:05.625Z,0.50
2018-01-05T12:56:33.982Z,1.00
2018-01-05T12:59:01.528Z,0.50
2018-01-05T13:01:29.100Z,0.40
2018-01-05T13:03:56.661Z,0.40
2018-01-05T13:06:24.256Z,0.40
2018-01-05T13:08:52.572Z,0.50
2018-01-05T13:11:20.131Z,3.40
2018-01-05T13:13:47.706Z,0.50
2018-01-05T13:16:15.296Z,1.23
2018-01-05T13:18:42.854Z,0.60
2018-01-05T13:21:10.405Z,0.40
2018-01-05T13:23:38.004Z,0.50
2018-01-05T13:26:05.579Z,0.60
2018-01-05T13:28:33.141Z,0.53
2018-01-05T13:31:00.701Z,3.53
2018-01-05T13:33:28.272Z,0.50
2018-01-05T13:35:55.843Z,0.50
2018-01-05T13:38:23.412Z,0.50
2018-01-05T13:40:50.981Z,0.50
2018-01-05T13:43:18.563Z,0.80
2018-01-05T13:45:46.879Z,0.77
2018-01-05T13:48:14.442Z,0.67
2018-01-05T13:50:42.008Z,0.80
2018-01-05T13:53:09.555Z,1.47
2018-01-05T13:55:37.221Z,0.63
2018-01-05T13:58:04.773Z,0.67
2018-01-05T14:00:32.349Z,0.90
2018-01-05T14:02:59.917Z,0.50
2018-01-05T14:05:27.491Z,0.67
2018-01-05T14:07:55.049Z,0.50
2018-01-05T14:10:22.618Z,0.40
2018-01-05T14:12:50.193Z,0.60
2018-01-05T14:15:17.754Z,0.43
2018-01-05T14:17:45.330Z,0.50
2018-01-05T14:20:13.665Z,1.60
2018-01-05T14:22:41.244Z,3.53
2018-01-05T14:25:08.788Z,0.93
2018-01-05T14:27:36.941Z,0.50
2018-01-05T14:30:04.492Z,2.73
2018-01-05T14:32:32.061Z,12.90
2018-01-05T14:34:59.650Z,11.77
2018-01-05T14:37:27.227Z,12.70
2018-01-05T14:39:55.583Z,9.77
2018-01-05T14:42:23.901Z,6.37
2018-01-05T14:44:51.473Z,6.93
2018-01-05T14:47:19.033Z,3.47
2018-01-05T14:49:46.627Z,2.10
2018-01-05T14:52:14.807Z,2.90
2018-01-05T14:54:42.406Z,5.20
2018-01-05T14:57:10.734Z,4.80
2018-01-05T14:59:38.304Z,4.13
2018-01-05T15:02:05.871Z,6.53
2018-01-05T15:04:33.425Z,2.40
2018-01-05T15:07:01.005Z,6.80
2018-01-05T15:09:28.607Z,3.80
2018-01-05T15:11:56.916Z,2.13
2018-01-05T15:14:24.490Z,4.17
2018-01-05T15:16:52.083Z,5.60
2018-01-05T15:19:20.428Z,6.40
2018-01-05T15:21:48.095Z,3.73
2018-01-05T15:24:15.656Z,5.57
2018-01-05T15:26:43.232Z,14.57
2018-01-05T15:29:11.578Z,15.43
2018-01-05T15:31:39.128Z,21.67
2018-01-05T15:34:06.720Z,29.47
2018-01-05T15:36:34.342Z,22.83
2018-01-05T15:39:01.934Z,21.57
2018-01-05T15:41:30.265Z,28.70
2018-01-05T15:43:57.826Z,40.10
2018-01-05T15:46:25.418Z,31.50
2018-01-05T15:48:52.971Z,29.20
2018-01-05T15:51:20.536Z,20.10
2018-01-05T15:53:48.112Z,14.60
2018-01-05T15:56:15.689Z,18.57
2018-01-05T15:58:44.022Z,11.43
2018-01-05T16:01:11.611Z,11.10
2018-01-05T16:03:39.173Z,7.67
2018-01-05T16:06:06.725Z,15.00
2018-01-05T16:08:34.301Z,10.53
2018-01-05T16:11:02.638Z,10.83
2018-01-05T16:13:30.209Z,8.27
2018-01-05T16:15:57.784Z,13.73
2018-01-05T16:18:25.380Z,13.03
2018-01-05T16:20:54.491Z,9.43
2018-01-05T16:23:22.907Z,12.87
2018-01-05T16:25:50.465Z,20.83
2018-01-05T16:28:18.058Z,22.20
2018-01-05T16:30:46.385Z,10.57
2018-01-05T16:33:13.968Z,20.03
2018-01-05T16:35:41.550Z,11.47
2018-01-05T16:38:09.886Z,10.33
2018-01-05T16:40:37.461Z,17.33
2018-01-05T16:43:05.035Z,22.60
2018-01-05T16:45:32.629Z,12.60
2018-01-05T16:48:00.194Z,26.23
2018-01-05T16:50:27.785Z,11.73
2018-01-05T16:52:55.363Z,12.23
2018-01-05T16:55:22.944Z,12.37
2018-01-05T16:57:50.503Z,14.70
2018-01-05T17:00:18.057Z,14.47
2018-01-05T17:02:45.651Z,12.93
2018-01-05T17:05:13.210Z,16.70
2018-01-05T17:07:40.804Z,15.80
2018-01-05T17:10:08.365Z,17.73
2018-01-05T17:12:35.949Z,27.70
2018-01-05T17:15:03.513Z,21.77
2018-01-05T17:17:31.090Z,23.40
2018-01-05T17:19:59.442Z,16.70
2018-01-05T17:22:27.001Z,13.10
2018-01-05T17:24:54.565Z,12.67
2018-01-05T17:27:22.115Z,20.90
2018-01-05T17:29:49.673Z,5.23
2018-01-05T17:32:17.230Z,3.30
2018-01-05T17:34:44.805Z,6.30
2018-01-05T17:37:12.353Z,4.23
2018-01-05T17:39:39.933Z,4.60
2018-01-05T17:42:10.774Z,3.80
2018-01-05T17:44:39.096Z,3.30
2018-01-05T17:47:06.651Z,2.63
2018-01-05T17:49:34.192Z,3.50
2018-01-05T17:52:01.747Z,3.63
2018-01-05T17:54:30.056Z,2.40
2018-01-05T17:56:57.647Z,2.27
2018-01-05T17:59:25.224Z,2.43
2018-01-05T18:01:52.792Z,3.97
2018-01-05T18:04:21.128Z,3.00
2018-01-05T18:06:48.677Z,2.70
2018-01-05T18:09:16.242Z,3.40
2018-01-05T18:11:43.802Z,1.83
2018-01-05T18:14:11.378Z,3.53
2018-01-05T18:16:38.929Z,2.53
2018-01-05T18:19:06.499Z,2.67
2018-01-05T18:21:34.047Z,5.35
2018-01-05T18:24:01.635Z,3.50
2018-01-05T18:26:29.964Z,4.77
2018-01-05T18:28:57.564Z,9.30
2018-01-05T18:31:25.125Z,3.10
2018-01-05T18:33:52.708Z,2.72
2018-01-05T18:36:21.039Z,8.55
2018-01-05T18:38:48.591Z,9.20
2018-01-05T18:41:16.162Z,6.40
2018-01-05T18:43:43.703Z,3.77
2018-01-05T18:46:11.262Z,3.03
2018-01-05T18:48:38.827Z,4.77
2018-01-05T18:51:06.395Z,4.30
2018-01-05T18:53:34.050Z,3.22
2018-01-05T18:56:01.624Z,3.20
2018-01-05T18:58:29.188Z,3.20
2018-01-05T19:00:56.749Z,5.00
2018-01-05T19:03:24.320Z,2.25
2018-01-05T19:05:51.876Z,2.83
2018-01-05T19:08:19.458Z,2.27
2018-01-05T19:10:47.796Z,4.50
2018-01-05T19:13:15.362Z,3.40
2018-01-05T19:15:42.932Z,4.67
2018-01-05T19:18:10.508Z,3.47
2018-01-05T19:20:38.836Z,2.97
2018-01-05T19:23:06.396Z,1.85
2018-01-05T19:25:33.984Z,2.83
2018-01-05T19:28:01.613Z,4.20
2018-01-05T19:30:29.198Z,2.70
2018-01-05T19:32:56.772Z,2.47
2018-01-05T19:35:24.337Z,3.97
2018-01-05T19:37:51.902Z,5.40
2018-01-05T19:40:20.251Z,3.00
2018-01-05T19:42:47.812Z,10.43
2018-01-05T19:45:15.360Z,12.27
2018-01-05T19:47:42.933Z,8.23
2018-01-05T19:50:10.508Z,8.57
2018-01-05T19:52:38.188Z,6.05
2018-01-05T19:55:06.518Z,4.22
2018-01-05T19:57:34.866Z,3.50
2018-01-05T20:00:02.415Z,6.82
2018-01-05T20:02:30.759Z,8.10
2018-01-05T20:04:58.330Z,10.00
2018-01-05T20:07:25.894Z,6.45
2018-01-05T20:09:54.224Z,11.95
2018-01-05T20:12:21.763Z,5.78
2018-01-05T20:14:49.345Z,4.47
2018-01-05T20:17:16.906Z,9.32
2018-01-05T20:19:44.481Z,18.08
2018-01-05T20:22:12.027Z,7.80
2018-01-05T20:24:39.616Z,21.58
2018-01-05T20:27:07.403Z,21.12
2018-01-05T20:29:35.744Z,22.20
2018-01-05T20:32:03.320Z,15.40
2018-01-05T20:34:30.924Z,20.55
2018-01-05T20:36:58.502Z,24.52
2018-01-05T20:39:26.081Z,16.52
2018-01-05T20:41:53.679Z,13.40
2018-01-05T20:44:22.003Z,21.17
2018-01-05T20:46:49.567Z,14.38
2018-01-05T20:49:17.121Z,17.52
2018-01-05T20:51:44.754Z,14.73
2018-01-05T20:54:12.331Z,14.48
2018-01-05T20:56:41.386Z,14.90
2018-01-05T20:59:08.979Z,11.20
2018-01-05T21:01:36.538Z,14.13
2018-01-05T21:04:04.109Z,10.52
2018-01-05T21:06:31.665Z,7.05
2018-01-05T21:08:59.246Z,7.05
2018-01-05T21:11:26.806Z,7.93
2018-01-05T21:13:54.393Z,6.65
2018-01-05T21:16:21.964Z,6.03
2018-01-05T21:18:50.285Z,10.68
2018-01-05T21:21:17.857Z,10.25
2018-01-05T21:23:45.421Z,13.00
2018-01-05T21:26:12.992Z,14.48
2018-01-05T21:28:40.553Z,7.95
2018-01-05T21:31:08.134Z,5.47
2018-01-05T21:33:35.704Z,8.82
2018-01-05T21:36:04.132Z,8.38
2018-01-05T21:38:31.795Z,4.97
2018-01-05T21:40:59.381Z,8.40
2018-01-05T21:43:26.966Z,6.55
2018-01-05T21:45:55.396Z,5.72
2018-01-05T21:48:22.963Z,5.22
2018-01-05T21:50:50.533Z,7.10
2018-01-05T21:53:18.099Z,6.32
2018-01-05T21:55:45.659Z,7.70
2018-01-05T21:58:13.236Z,5.93
2018-01-05T22:00:41.548Z,5.55
2018-01-05T22:03:09.116Z,5.95
2018-01-05T22:05:36.678Z,4.93
2018-01-05T22:08:04.247Z,5.00
2018-01-05T22:10:31.821Z,4.95
2018-01-05T22:12:59.412Z,5.95
2018-01-05T22:15:26.982Z,4.47
2018-01-05T22:17:55.321Z,2.67
2018-01-05T22:20:22.883Z,6.07
2018-01-05T22:22:50.455Z,4.75
2018-01-05T22:25:18.034Z,6.35
2018-01-05T22:27:46.360Z,8.65
2018-01-05T22:30:13.922Z,4.50
2018-01-05T22:32:41.499Z,3.33
2018-01-05T22:35:10.087Z,5.28
2018-01-05T22:37:37.668Z,2.83
2018-01-05T22:40:05.231Z,3.37
2018-01-05T22:42:32.821Z,3.95
2018-01-05T22:45:00.372Z,2.50
2018-01-05T22:47:27.949Z,2.28
2018-01-05T22:49:55.528Z,1.73
2018-01-05T22:52:23.107Z,2.20
2018-01-05T22:54:50.700Z,2.75
2018-01-05T22:57:19.030Z,2.53
2018-01-05T22:59:46.615Z,1.92
2018-01-05T23:02:14.170Z,2.90
2018-01-05T23:04:41.763Z,1.33
2018-01-05T23:07:10.094Z,1.70
2018-01-05T23:09:37.669Z,2.47
2018-01-05T23:12:05.231Z,2.80
2018-01-05T23:14:32.805Z,4.20
2018-01-05T23:17:01.153Z,1.62
2018-01-05T23:19:28.717Z,2.17
2018-01-05T23:21:56.289Z,2.67
2018-01-05T23:24:23.849Z,2.47
2018-01-05T23:26:51.439Z,2.00
2018-01-05T23:29:19.767Z,1.60
2018-01-05T23:31:47.415Z,3.10
2018-01-05T23:34:14.956Z,1.48
2018-01-05T23:36:42.542Z,2.03
2018-01-05T23:39:10.097Z,1.52
2018-01-05T23:41:37.650Z,1.65
2018-01-05T23:44:05.211Z,2.05
2018-01-05T23:46:32.784Z,1.50
2018-01-05T23:49:00.357Z,1.58
2018-01-05T23:51:27.920Z,3.85
2018-01-05T23:53:55.515Z,2.42
2018-01-05T23:56:23.063Z,2.92
2018-01-05T23:58:51.419Z,1.52
